createdAt,value
2022-10-19T00:04:30.385Z,17.92
2022-10-19T00:09:32.047Z,17.52
2022-10-19T00:14:33.732Z,18.58
2022-10-19T00:19:35.464Z,16.03
2022-10-19T00:24:37.158Z,17.80
2022-10-19T00:29:39.081Z,15.07
2022-10-19T00:34:40.835Z,19.90
2022-10-19T00:39:42.547Z,13.80
2022-10-19T00:44:44.183Z,18.53
2022-10-19T00:49:46.418Z,14.75
2022-10-19T00:54:50.309Z,17.25
2022-10-19T00:59:52.105Z,19.55
2022-10-19T01:04:54.277Z,18.67
2022-10-19T01:09:56.328Z,16.00
2022-10-19T01:14:57.973Z,16.92
2022-10-19T01:20:28.532Z,17.38
2022-10-19T01:25:53.880Z,18.48
2022-10-19T01:31:17.297Z,14.03
2022-10-19T01:36:40.642Z,19.77
2022-10-19T01:42:03.531Z,17.70
2022-10-19T01:47:09.741Z,24.38
2022-10-19T01:52:15.487Z,15.82
2022-10-19T01:57:30.264Z,18.52
2022-10-19T02:02:32.235Z,18.85
2022-10-19T02:07:36.212Z,19.13
2022-10-19T02:12:38.850Z,17.30
2022-10-19T02:17:46.951Z,17.73
2022-10-19T02:22:48.938Z,13.90
2022-10-19T02:27:50.651Z,17.98
2022-10-19T02:32:52.471Z,19.05
2022-10-19T02:37:57.747Z,17.88
2022-10-19T02:43:04.976Z,14.55
2022-10-19T02:48:11.047Z,17.63
2022-10-19T02:53:12.896Z,16.13
2022-10-19T02:58:14.608Z,14.95
2022-10-19T03:03:16.280Z,19.77
2022-10-19T03:08:17.963Z,18.85
2022-10-19T03:13:19.641Z,15.15
2022-10-19T03:18:21.293Z,17.53
2022-10-19T03:23:22.980Z,17.43
2022-10-19T03:28:24.669Z,18.90
2022-10-19T03:33:26.609Z,18.13
2022-10-19T03:38:28.257Z,16.03
2022-10-19T03:43:29.900Z,14.63
2022-10-19T03:48:32.708Z,14.23
2022-10-19T03:53:35.273Z,15.07
2022-10-19T03:58:38.388Z,13.27
2022-10-19T04:03:40.327Z,13.23
2022-10-19T04:08:42.570Z,13.75
2022-10-19T04:13:44.366Z,14.85
2022-10-19T04:18:46.558Z,13.55
2022-10-19T04:23:48.593Z,12.97
2022-10-19T04:28:50.320Z,13.07
2022-10-19T04:33:52.052Z,13.48
2022-10-19T04:38:53.736Z,12.95
2022-10-19T04:43:57.760Z,13.50
2022-10-19T04:49:00.085Z,12.82
2022-10-19T04:54:03.637Z,17.33
2022-10-19T04:59:05.329Z,13.00
2022-10-19T05:04:07.002Z,16.77
2022-10-19T05:09:08.745Z,10.43
2022-10-19T05:14:10.599Z,13.30
2022-10-19T05:19:13.824Z,12.20
2022-10-19T05:24:15.524Z,13.25
2022-10-19T05:29:17.271Z,13.77
2022-10-19T05:34:19.120Z,12.80
2022-10-19T05:39:20.839Z,12.30
2022-10-19T05:44:23.671Z,13.88
2022-10-19T05:49:25.378Z,12.40
2022-10-19T05:54:28.497Z,11.65
2022-10-19T05:59:30.663Z,12.05
2022-10-19T06:04:32.348Z,15.35
2022-10-19T06:09:34.022Z,12.98
2022-10-19T06:14:35.732Z,15.38
2022-10-19T06:19:37.543Z,11.55
2022-10-19T06:24:39.239Z,10.90
2022-10-19T06:29:40.958Z,9.75
2022-10-19T06:34:42.708Z,9.55
2022-10-19T06:39:44.422Z,10.93
2022-10-19T06:44:46.115Z,9.98
2022-10-19T06:49:47.816Z,10.65
2022-10-19T06:54:49.505Z,11.35
2022-10-19T06:59:52.933Z,9.60
2022-10-19T07:04:55.475Z,8.80
2022-10-19T07:09:57.105Z,8.48
2022-10-19T07:14:58.745Z,9.38
2022-10-19T07:20:00.468Z,9.23
2022-10-19T07:25:02.240Z,13.52
2022-10-19T07:30:04.158Z,11.95
2022-10-19T07:35:06.280Z,16.48
2022-10-19T07:40:08.701Z,15.30
2022-10-19T07:45:10.733Z,11.80
2022-10-19T07:50:12.402Z,13.48
2022-10-19T07:55:14.188Z,14.48
2022-10-19T08:00:17.135Z,15.25
2022-10-19T08:05:18.858Z,33.30
2022-10-19T08:10:20.590Z,16.80
2022-10-19T08:15:22.313Z,14.23
2022-10-19T08:20:23.995Z,15.07
2022-10-19T08:25:25.710Z,15.35
2022-10-19T08:30:27.395Z,17.52
2022-10-19T08:35:30.733Z,13.55
2022-10-19T08:40:32.435Z,19.15
2022-10-19T08:45:50.032Z,18.55
2022-10-19T08:50:52.863Z,18.45
2022-10-19T08:56:04.821Z,18.27
2022-10-19T09:01:26.760Z,20.17
2022-10-19T09:06:31.218Z,18.20
2022-10-19T09:11:38.640Z,19.02
2022-10-19T09:16:40.411Z,19.20
2022-10-19T09:21:51.324Z,18.77
2022-10-19T09:26:56.282Z,17.90
2022-10-19T09:32:00.962Z,24.60
2022-10-19T09:37:03.105Z,21.05
2022-10-19T09:42:10.310Z,23.63
2022-10-19T09:47:31.364Z,25.02
2022-10-19T09:52:36.917Z,23.63
2022-10-19T09:57:45.699Z,21.63
2022-10-19T10:02:52.579Z,22.83
2022-10-19T10:07:55.217Z,24.73
2022-10-19T10:12:59.570Z,25.38
2022-10-19T10:18:01.375Z,23.00
2022-10-19T10:23:05.348Z,21.13
2022-10-19T10:28:24.893Z,24.23
2022-10-19T10:33:45.613Z,25.13
2022-10-19T10:38:53.042Z,24.97
2022-10-19T10:44:02.313Z,23.10
2022-10-19T10:49:14.816Z,22.90
2022-10-19T10:54:25.662Z,21.60
2022-10-19T10:59:38.471Z,30.08
2022-10-19T11:04:52.664Z,22.35
2022-10-19T11:10:00.151Z,25.53
2022-10-19T11:15:15.113Z,25.45
2022-10-19T11:20:16.981Z,23.48
2022-10-19T11:25:42.585Z,24.58
2022-10-19T11:31:06.437Z,22.13
2022-10-19T11:36:15.966Z,24.97
2022-10-19T11:41:56.151Z,25.33
2022-10-19T11:47:29.762Z,21.30
2022-10-19T11:53:30.178Z,25.33
2022-10-19T11:58:45.390Z,27.00
2022-10-19T12:04:14.497Z,25.23
2022-10-19T12:09:41.924Z,22.73
2022-10-19T12:14:48.269Z,22.00
2022-10-19T12:19:56.218Z,16.95
2022-10-19T12:25:00.849Z,21.45
2022-10-19T12:30:12.956Z,17.70
2022-10-19T12:35:31.278Z,19.00
2022-10-19T12:40:36.548Z,21.30
2022-10-19T12:45:48.043Z,23.48
2022-10-19T12:50:49.684Z,20.60
2022-10-19T12:56:16.199Z,22.58
2022-10-19T13:01:35.775Z,23.20
2022-10-19T13:06:48.481Z,20.25
2022-10-19T13:12:20.080Z,23.05
2022-10-19T13:17:35.938Z,23.92
2022-10-19T13:22:38.048Z,22.13
2022-10-19T13:27:40.377Z,19.88
2022-10-19T13:32:44.843Z,25.98
2022-10-19T13:37:46.582Z,21.33
2022-10-19T13:42:58.209Z,22.63
2022-10-19T13:48:12.767Z,21.43
2022-10-19T13:53:48.502Z,25.98
2022-10-19T13:59:20.913Z,22.30
2022-10-19T14:04:57.645Z,23.27
2022-10-19T14:10:06.272Z,22.65
2022-10-19T14:15:20.311Z,23.90
2022-10-19T14:20:24.768Z,24.47
2022-10-19T14:25:28.382Z,25.10
2022-10-19T14:30:33.756Z,19.30
2022-10-19T14:35:39.449Z,24.48
2022-10-19T14:40:41.912Z,23.43
2022-10-19T14:45:43.616Z,23.33
2022-10-19T14:50:49.466Z,23.37
2022-10-19T14:55:55.257Z,22.53
2022-10-19T15:00:57.224Z,23.42
2022-10-19T15:06:06.024Z,21.73
2022-10-19T15:11:09.041Z,21.40
2022-10-19T15:16:50.799Z,19.33
2022-10-19T15:22:18.846Z,19.73
2022-10-19T15:27:22.519Z,17.75
2022-10-19T15:32:30.096Z,19.77
2022-10-19T15:37:31.872Z,19.80
2022-10-19T15:42:40.737Z,21.15
2022-10-19T15:48:10.436Z,21.50
2022-10-19T15:53:12.140Z,21.10
2022-10-19T15:58:14.825Z,24.13
2022-10-19T16:03:16.488Z,26.13
2022-10-19T16:08:18.195Z,21.83
2022-10-19T16:13:19.863Z,20.20
2022-10-19T16:18:21.646Z,23.63
2022-10-19T16:23:23.376Z,30.33
2022-10-19T16:28:25.096Z,21.70
2022-10-19T16:33:26.861Z,21.58
2022-10-19T16:38:29.312Z,22.77
2022-10-19T16:43:31.261Z,23.53
2022-10-19T16:48:33.502Z,23.37
2022-10-19T16:53:35.754Z,24.00
2022-10-19T16:58:38.070Z,24.58
2022-10-19T17:03:39.743Z,25.23
2022-10-19T17:09:14.649Z,25.33
2022-10-19T17:14:06.631Z,26.60
2022-10-19T17:19:09.858Z,28.20
2022-10-19T17:24:20.113Z,24.43
2022-10-19T17:29:23.813Z,25.77
2022-10-19T17:34:25.818Z,27.60
2022-10-19T17:39:29.989Z,25.85
2022-10-19T17:44:32.008Z,29.70
2022-10-19T17:49:33.998Z,28.83
2022-10-19T17:54:43.614Z,26.42
2022-10-19T17:59:56.098Z,31.55
2022-10-19T18:04:57.813Z,26.90
2022-10-19T18:09:59.508Z,31.27
2022-10-19T18:15:01.203Z,27.27
2022-10-19T18:20:03.616Z,26.75
2022-10-19T18:25:05.579Z,29.47
2022-10-19T18:30:07.827Z,30.83
2022-10-19T18:35:09.596Z,30.40
2022-10-19T18:40:11.608Z,30.88
2022-10-19T18:45:13.369Z,27.52
2022-10-19T18:55:21.809Z,27.80
2022-10-19T19:00:23.472Z,24.63
2022-10-19T19:05:25.258Z,28.97
2022-10-19T19:10:26.952Z,33.13
2022-10-19T19:15:28.683Z,32.08
2022-10-19T19:20:30.370Z,27.92
2022-10-19T19:25:32.372Z,28.88
2022-10-19T19:30:34.038Z,28.65
2022-10-19T19:35:42.776Z,31.58
2022-10-19T19:40:45.969Z,23.70
2022-10-19T19:45:56.719Z,22.08
2022-10-19T19:50:58.696Z,26.17
2022-10-19T19:56:00.355Z,21.52
2022-10-19T20:01:12.585Z,21.52
2022-10-19T20:06:22.060Z,20.70
2022-10-19T20:11:29.471Z,20.92
2022-10-19T20:16:31.352Z,20.17
2022-10-19T20:21:33.074Z,21.75
2022-10-19T20:26:34.966Z,22.93
2022-10-19T20:31:36.820Z,19.98
2022-10-19T20:36:38.556Z,26.45
2022-10-19T20:41:40.337Z,19.70
2022-10-19T20:46:42.099Z,17.90
2022-10-19T20:51:43.926Z,18.50
2022-10-19T20:56:45.681Z,13.43
2022-10-19T21:01:52.358Z,16.10
2022-10-19T21:06:54.205Z,14.00
2022-10-19T21:11:55.858Z,15.50
2022-10-19T21:16:58.918Z,14.40
2022-10-19T21:22:01.970Z,15.88
2022-10-19T21:27:06.422Z,13.80
2022-10-19T21:32:08.127Z,13.40
2022-10-19T21:37:09.829Z,15.95
2022-10-19T21:42:11.518Z,16.45
2022-10-19T21:47:13.170Z,11.27
2022-10-19T21:52:16.196Z,11.03
2022-10-19T21:57:18.010Z,10.20
2022-10-19T22:02:19.671Z,11.70
2022-10-19T22:07:21.360Z,9.73
2022-10-19T22:12:23.198Z,15.23
2022-10-19T22:17:24.890Z,11.40
2022-10-19T22:22:26.568Z,10.23
2022-10-19T22:27:28.264Z,10.75
2022-10-19T22:32:29.957Z,12.52
2022-10-19T22:37:31.635Z,11.77
2022-10-19T22:43:10.990Z,8.70
2022-10-19T22:48:50.161Z,9.70
2022-10-19T22:53:51.827Z,12.27
2022-10-19T22:58:53.495Z,10.40
2022-10-19T23:03:55.485Z,8.60
2022-10-19T23:08:57.175Z,11.63
2022-10-19T23:13:59.035Z,8.43
2022-10-19T23:19:00.724Z,10.03
2022-10-19T23:24:02.405Z,11.40
2022-10-19T23:29:04.103Z,6.57
2022-10-19T23:34:05.808Z,7.20
2022-10-19T23:39:07.512Z,6.57
2022-10-19T23:44:10.323Z,6.15
2022-10-19T23:49:12.186Z,7.80
2022-10-19T23:54:13.841Z,11.18
2022-10-19T23:59:15.511Z,8.80
